sensor_id;sensor_type;location;lat;lon;timestamp;pressure;altitude;pressure_sealevel;temperature;humidity
56894;BME280;43392;50.078;13.704;2022-08-19T00:00:50;96299.25;;;22.45;70.94
56894;BME280;43392;50.078;13.704;2022-08-19T00:03:16;96300.44;;;22.44;71.32
56894;BME280;43392;50.078;13.704;2022-08-19T00:05:43;96298.84;;;22.43;71.15
56894;BME280;43392;50.078;13.704;2022-08-19T00:08:10;96299.22;;;22.42;71.33
56894;BME280;43392;50.078;13.704;2022-08-19T00:10:36;96305.03;;;22.40;71.45
56894;BME280;43392;50.078;13.704;2022-08-19T00:13:04;96308.19;;;22.42;71.43
56894;BME280;43392;50.078;13.704;2022-08-19T00:15:31;96297.63;;;22.41;70.91
56894;BME280;43392;50.078;13.704;2022-08-19T00:17:57;96292.97;;;22.41;70.49
56894;BME280;43392;50.078;13.704;2022-08-19T00:20:24;96289.81;;;22.39;70.34
56894;BME280;43392;50.078;13.704;2022-08-19T00:22:51;96287.38;;;22.34;70.39
56894;BME280;43392;50.078;13.704;2022-08-19T00:25:17;96281.00;;;22.01;70.87
56894;BME280;43392;50.078;13.704;2022-08-19T00:27:44;96280.16;;;21.77;71.47
56894;BME280;43392;50.078;13.704;2022-08-19T00:30:14;96273.69;;;21.63;71.79
56894;BME280;43392;50.078;13.704;2022-08-19T00:32:42;96269.97;;;21.52;72.09
56894;BME280;43392;50.078;13.704;2022-08-19T00:35:09;96275.88;;;21.35;72.67
56894;BME280;43392;50.078;13.704;2022-08-19T00:37:37;96274.53;;;21.25;73.71
56894;BME280;43392;50.078;13.704;2022-08-19T00:40:09;96256.09;;;21.19;73.41
56894;BME280;43392;50.078;13.704;2022-08-19T00:42:36;96235.00;;;21.15;73.50
56894;BME280;43392;50.078;13.704;2022-08-19T00:45:09;96224.63;;;21.25;72.99
56894;BME280;43392;50.078;13.704;2022-08-19T00:47:38;96218.59;;;21.35;72.68
56894;BME280;43392;50.078;13.704;2022-08-19T00:50:07;96224.13;;;21.38;72.59
56894;BME280;43392;50.078;13.704;2022-08-19T00:52:37;96222.34;;;21.27;72.71
56894;BME280;43392;50.078;13.704;2022-08-19T00:55:07;96229.91;;;21.14;73.18
56894;BME280;43392;50.078;13.704;2022-08-19T00:57:36;96236.78;;;21.08;73.88
56894;BME280;43392;50.078;13.704;2022-08-19T01:00:07;96245.50;;;20.98;73.94
56894;BME280;43392;50.078;13.704;2022-08-19T01:02:35;96247.00;;;20.95;74.08
56894;BME280;43392;50.078;13.704;2022-08-19T01:05:06;96251.41;;;21.00;74.05
56894;BME280;43392;50.078;13.704;2022-08-19T01:07:34;96257.22;;;20.98;73.96
56894;BME280;43392;50.078;13.704;2022-08-19T01:10:01;96269.63;;;20.96;73.90
56894;BME280;43392;50.078;13.704;2022-08-19T01:12:28;96281.53;;;20.88;74.33
56894;BME280;43392;50.078;13.704;2022-08-19T01:14:55;96283.81;;;20.86;74.25
56894;BME280;43392;50.078;13.704;2022-08-19T01:17:22;96283.09;;;20.89;73.93
56894;BME280;43392;50.078;13.704;2022-08-19T01:19:49;96288.28;;;20.94;73.79
56894;BME280;43392;50.078;13.704;2022-08-19T01:22:27;96293.94;;;21.04;73.29
56894;BME280;43392;50.078;13.704;2022-08-19T01:24:54;96307.91;;;21.03;73.07
56894;BME280;43392;50.078;13.704;2022-08-19T01:27:20;96303.13;;;20.96;73.40
56894;BME280;43392;50.078;13.704;2022-08-19T01:29:47;96301.09;;;20.93;73.36
56894;BME280;43392;50.078;13.704;2022-08-19T01:32:16;96314.44;;;20.98;72.92
56894;BME280;43392;50.078;13.704;2022-08-19T01:34:44;96316.22;;;21.06;72.74
56894;BME280;43392;50.078;13.704;2022-08-19T01:37:13;96307.59;;;21.04;72.79
56894;BME280;43392;50.078;13.704;2022-08-19T01:39:42;96306.91;;;20.92;73.19
56894;BME280;43392;50.078;13.704;2022-08-19T01:42:09;96311.53;;;20.88;73.14
56894;BME280;43392;50.078;13.704;2022-08-19T01:44:37;96315.44;;;20.90;73.27
56894;BME280;43392;50.078;13.704;2022-08-19T01:47:04;96318.78;;;20.99;73.22
56894;BME280;43392;50.078;13.704;2022-08-19T01:49:32;96325.53;;;21.05;72.49
56894;BME280;43392;50.078;13.704;2022-08-19T01:52:00;96329.56;;;21.11;72.66
56894;BME280;43392;50.078;13.704;2022-08-19T01:54:27;96328.13;;;21.17;72.76
56894;BME280;43392;50.078;13.704;2022-08-19T01:57:04;96325.47;;;21.21;72.74
56894;BME280;43392;50.078;13.704;2022-08-19T01:59:31;96329.44;;;21.24;72.34
56894;BME280;43392;50.078;13.704;2022-08-19T02:01:58;96327.03;;;21.22;72.45
56894;BME280;43392;50.078;13.704;2022-08-19T02:04:25;96322.34;;;21.19;72.33
56894;BME280;43392;50.078;13.704;2022-08-19T02:06:52;96315.50;;;21.09;72.29
56894;BME280;43392;50.078;13.704;2022-08-19T02:09:18;96312.25;;;21.04;72.42
56894;BME280;43392;50.078;13.704;2022-08-19T02:11:45;96317.25;;;21.02;72.66
56894;BME280;43392;50.078;13.704;2022-08-19T02:14:13;96316.75;;;20.96;72.54
56894;BME280;43392;50.078;13.704;2022-08-19T02:16:40;96322.84;;;20.90;72.80
56894;BME280;43392;50.078;13.704;2022-08-19T02:19:06;96331.47;;;20.76;73.59
56894;BME280;43392;50.078;13.704;2022-08-19T02:21:33;96344.78;;;20.62;74.50
56894;BME280;43392;50.078;13.704;2022-08-19T02:24:00;96349.38;;;20.58;74.46
56894;BME280;43392;50.078;13.704;2022-08-19T02:26:27;96333.81;;;20.59;74.40
56894;BME280;43392;50.078;13.704;2022-08-19T02:28:54;96341.91;;;20.71;73.71
56894;BME280;43392;50.078;13.704;2022-08-19T02:31:24;96346.69;;;20.77;73.31
56894;BME280;43392;50.078;13.704;2022-08-19T02:33:53;96340.09;;;20.78;73.52
56894;BME280;43392;50.078;13.704;2022-08-19T02:36:21;96354.59;;;20.82;73.20
56894;BME280;43392;50.078;13.704;2022-08-19T02:38:47;96349.94;;;20.83;72.93
56894;BME280;43392;50.078;13.704;2022-08-19T02:41:15;96359.69;;;20.84;73.39
56894;BME280;43392;50.078;13.704;2022-08-19T02:43:42;96364.06;;;20.88;73.06
56894;BME280;43392;50.078;13.704;2022-08-19T02:46:15;96359.50;;;20.92;73.13
56894;BME280;43392;50.078;13.704;2022-08-19T02:48:44;96363.09;;;20.96;73.32
56894;BME280;43392;50.078;13.704;2022-08-19T02:51:16;96365.81;;;20.96;73.29
56894;BME280;43392;50.078;13.704;2022-08-19T02:53:43;96376.34;;;20.98;73.53
56894;BME280;43392;50.078;13.704;2022-08-19T02:56:09;96384.63;;;21.01;73.29
56894;BME280;43392;50.078;13.704;2022-08-19T02:58:36;96389.03;;;21.06;73.37
56894;BME280;43392;50.078;13.704;2022-08-19T03:01:03;96385.59;;;21.09;73.00
56894;BME280;43392;50.078;13.704;2022-08-19T03:03:29;96388.75;;;21.11;73.32
56894;BME280;43392;50.078;13.704;2022-08-19T03:06:10;96392.63;;;21.10;73.81
56894;BME280;43392;50.078;13.704;2022-08-19T03:08:38;96379.72;;;21.07;73.56
56894;BME280;43392;50.078;13.704;2022-08-19T03:11:12;96378.91;;;21.06;74.07
56894;BME280;43392;50.078;13.704;2022-08-19T03:13:39;96378.47;;;21.04;74.13
56894;BME280;43392;50.078;13.704;2022-08-19T03:16:06;96374.16;;;21.03;73.99
56894;BME280;43392;50.078;13.704;2022-08-19T03:18:32;96374.50;;;21.02;74.38
56894;BME280;43392;50.078;13.704;2022-08-19T03:20:59;96364.03;;;21.04;74.19
56894;BME280;43392;50.078;13.704;2022-08-19T03:23:27;96369.16;;;21.05;74.39
56894;BME280;43392;50.078;13.704;2022-08-19T03:25:53;96362.91;;;21.05;74.41
56894;BME280;43392;50.078;13.704;2022-08-19T03:28:20;96373.00;;;21.04;74.50
56894;BME280;43392;50.078;13.704;2022-08-19T03:30:58;96366.34;;;21.02;74.92
56894;BME280;43392;50.078;13.704;2022-08-19T03:33:26;96366.66;;;21.00;74.65
56894;BME280;43392;50.078;13.704;2022-08-19T03:36:01;96359.66;;;20.99;74.94
56894;BME280;43392;50.078;13.704;2022-08-19T03:38:30;96355.72;;;20.97;75.13
56894;BME280;43392;50.078;13.704;2022-08-19T03:40:57;96360.38;;;20.96;75.28
56894;BME280;43392;50.078;13.704;2022-08-19T03:43:24;96339.69;;;20.95;75.12
56894;BME280;43392;50.078;13.704;2022-08-19T03:45:59;96338.56;;;20.96;75.46
56894;BME280;43392;50.078;13.704;2022-08-19T03:48:28;96341.19;;;20.93;75.30
56894;BME280;43392;50.078;13.704;2022-08-19T03:50:55;96349.75;;;20.91;75.32
56894;BME280;43392;50.078;13.704;2022-08-19T03:53:23;96349.31;;;20.89;75.41
56894;BME280;43392;50.078;13.704;2022-08-19T03:55:52;96346.16;;;20.87;75.50
56894;BME280;43392;50.078;13.704;2022-08-19T03:58:19;96355.47;;;20.86;75.44
56894;BME280;43392;50.078;13.704;2022-08-19T04:00:46;96348.88;;;20.87;75.46
56894;BME280;43392;50.078;13.704;2022-08-19T04:03:12;96339.53;;;20.88;75.35
56894;BME280;43392;50.078;13.704;2022-08-19T04:05:39;96337.25;;;20.90;75.55
56894;BME280;43392;50.078;13.704;2022-08-19T04:08:06;96342.34;;;20.92;75.47
56894;BME280;43392;50.078;13.704;2022-08-19T04:10:35;96348.59;;;20.92;75.23
56894;BME280;43392;50.078;13.704;2022-08-19T04:13:04;96350.97;;;20.94;75.42
56894;BME280;43392;50.078;13.704;2022-08-19T04:15:32;96363.47;;;20.95;75.41
56894;BME280;43392;50.078;13.704;2022-08-19T04:18:05;96366.59;;;20.97;75.13
56894;BME280;43392;50.078;13.704;2022-08-19T04:20:33;96372.84;;;20.97;75.48
56894;BME280;43392;50.078;13.704;2022-08-19T04:22:59;96375.22;;;20.99;75.63
56894;BME280;43392;50.078;13.704;2022-08-19T04:25:26;96388.47;;;21.00;75.46
56894;BME280;43392;50.078;13.704;2022-08-19T04:27:52;96383.03;;;21.00;75.36
56894;BME280;43392;50.078;13.704;2022-08-19T04:30:20;96386.91;;;20.99;75.61
56894;BME280;43392;50.078;13.704;2022-08-19T04:32:47;96394.31;;;20.99;75.97
56894;BME280;43392;50.078;13.704;2022-08-19T04:35:15;96389.97;;;20.98;75.88
56894;BME280;43392;50.078;13.704;2022-08-19T04:37:42;96395.44;;;20.98;75.93
56894;BME280;43392;50.078;13.704;2022-08-19T04:40:09;96400.88;;;20.98;76.42
56894;BME280;43392;50.078;13.704;2022-08-19T04:42:54;96412.59;;;20.98;76.20
56894;BME280;43392;50.078;13.704;2022-08-19T04:45:22;96414.19;;;20.99;76.16
56894;BME280;43392;50.078;13.704;2022-08-19T04:47:49;96433.25;;;20.99;76.17
56894;BME280;43392;50.078;13.704;2022-08-19T04:50:16;96434.38;;;20.98;76.31
56894;BME280;43392;50.078;13.704;2022-08-19T04:52:43;96435.56;;;20.97;76.54
56894;BME280;43392;50.078;13.704;2022-08-19T04:55:10;96437.47;;;20.97;76.27
56894;BME280;43392;50.078;13.704;2022-08-19T04:57:36;96449.94;;;20.98;76.41
56894;BME280;43392;50.078;13.704;2022-08-19T05:00:06;96469.81;;;20.98;76.69
56894;BME280;43392;50.078;13.704;2022-08-19T05:02:36;96467.91;;;20.99;76.45
56894;BME280;43392;50.078;13.704;2022-08-19T05:05:03;96472.56;;;20.98;76.28
56894;BME280;43392;50.078;13.704;2022-08-19T05:07:31;96472.22;;;21.00;76.44
56894;BME280;43392;50.078;13.704;2022-08-19T05:09:58;96474.94;;;21.00;76.40
56894;BME280;43392;50.078;13.704;2022-08-19T05:12:25;96474.94;;;21.00;76.29
56894;BME280;43392;50.078;13.704;2022-08-19T05:14:52;96478.09;;;21.02;76.22
56894;BME280;43392;50.078;13.704;2022-08-19T05:17:19;96481.97;;;21.01;76.07
56894;BME280;43392;50.078;13.704;2022-08-19T05:19:47;96480.84;;;21.02;76.29
56894;BME280;43392;50.078;13.704;2022-08-19T05:22:31;96485.50;;;21.01;76.18
56894;BME280;43392;50.078;13.704;2022-08-19T05:25:03;96487.06;;;21.02;75.89
56894;BME280;43392;50.078;13.704;2022-08-19T05:27:31;96496.03;;;21.03;76.21
56894;BME280;43392;50.078;13.704;2022-08-19T05:29:58;96496.16;;;21.06;75.74
56894;BME280;43392;50.078;13.704;2022-08-19T05:32:25;96482.97;;;21.08;75.63
56894;BME280;43392;50.078;13.704;2022-08-19T05:34:53;96492.38;;;21.11;75.78
56894;BME280;43392;50.078;13.704;2022-08-19T05:37:20;96497.88;;;21.14;75.31
56894;BME280;43392;50.078;13.704;2022-08-19T05:39:47;96503.00;;;21.16;75.21
56894;BME280;43392;50.078;13.704;2022-08-19T05:42:15;96498.34;;;21.17;75.56
56894;BME280;43392;50.078;13.704;2022-08-19T05:44:43;96484.78;;;21.20;75.46
56894;BME280;43392;50.078;13.704;2022-08-19T05:47:11;96492.25;;;21.23;74.84
56894;BME280;43392;50.078;13.704;2022-08-19T05:49:38;96488.09;;;21.29;75.10
56894;BME280;43392;50.078;13.704;2022-08-19T05:52:09;96482.03;;;21.36;74.79
56894;BME280;43392;50.078;13.704;2022-08-19T05:54:37;96469.88;;;21.33;74.31
56894;BME280;43392;50.078;13.704;2022-08-19T05:57:06;96471.81;;;21.33;74.45
56894;BME280;43392;50.078;13.704;2022-08-19T05:59:32;96477.06;;;21.41;74.53
56894;BME280;43392;50.078;13.704;2022-08-19T06:02:01;96484.63;;;21.48;74.28
56894;BME280;43392;50.078;13.704;2022-08-19T06:04:28;96493.69;;;21.52;74.33
56894;BME280;43392;50.078;13.704;2022-08-19T06:06:55;96493.75;;;21.36;74.31
56894;BME280;43392;50.078;13.704;2022-08-19T06:09:25;96509.06;;;21.25;74.64
56894;BME280;43392;50.078;13.704;2022-08-19T06:11:53;96515.72;;;21.28;75.16
56894;BME280;43392;50.078;13.704;2022-08-19T06:14:22;96519.78;;;21.34;74.72
56894;BME280;43392;50.078;13.704;2022-08-19T06:16:49;96510.38;;;21.31;74.73
56894;BME280;43392;50.078;13.704;2022-08-19T06:19:19;96519.59;;;21.27;74.94
56894;BME280;43392;50.078;13.704;2022-08-19T06:21:47;96535.53;;;21.25;75.10
56894;BME280;43392;50.078;13.704;2022-08-19T06:24:19;96539.06;;;21.25;75.21
56894;BME280;43392;50.078;13.704;2022-08-19T06:26:50;96532.63;;;21.33;74.60
56894;BME280;43392;50.078;13.704;2022-08-19T06:29:20;96523.00;;;21.39;74.57
56894;BME280;43392;50.078;13.704;2022-08-19T06:31:48;96535.50;;;21.40;74.45
56894;BME280;43392;50.078;13.704;2022-08-19T06:34:16;96533.38;;;21.49;74.61
56894;BME280;43392;50.078;13.704;2022-08-19T06:36:45;96538.38;;;21.63;74.03
56894;BME280;43392;50.078;13.704;2022-08-19T06:39:14;96542.41;;;21.69;73.56
56894;BME280;43392;50.078;13.704;2022-08-19T06:41:43;96528.84;;;21.72;73.13
56894;BME280;43392;50.078;13.704;2022-08-19T06:44:11;96541.03;;;21.78;73.45
56894;BME280;43392;50.078;13.704;2022-08-19T06:46:40;96535.75;;;21.86;72.79
56894;BME280;43392;50.078;13.704;2022-08-19T06:49:08;96533.03;;;21.86;72.63
56894;BME280;43392;50.078;13.704;2022-08-19T06:51:36;96537.41;;;21.90;72.89
56894;BME280;43392;50.078;13.704;2022-08-19T06:54:04;96548.19;;;22.02;72.08
56894;BME280;43392;50.078;13.704;2022-08-19T06:56:31;96555.03;;;22.12;71.69
56894;BME280;43392;50.078;13.704;2022-08-19T06:58:59;96552.94;;;22.05;70.93
56894;BME280;43392;50.078;13.704;2022-08-19T07:01:27;96547.91;;;22.07;71.41
56894;BME280;43392;50.078;13.704;2022-08-19T07:03:53;96540.66;;;22.15;71.08
56894;BME280;43392;50.078;13.704;2022-08-19T07:06:20;96532.97;;;22.20;70.76
56894;BME280;43392;50.078;13.704;2022-08-19T07:08:47;96526.19;;;22.33;70.86
56894;BME280;43392;50.078;13.704;2022-08-19T07:11:16;96525.28;;;22.45;70.59
56894;BME280;43392;50.078;13.704;2022-08-19T07:13:44;96534.81;;;22.55;69.89
56894;BME280;43392;50.078;13.704;2022-08-19T07:16:15;96529.78;;;22.57;69.47
56894;BME280;43392;50.078;13.704;2022-08-19T07:18:43;96529.81;;;22.60;69.62
56894;BME280;43392;50.078;13.704;2022-08-19T07:21:15;96540.44;;;22.62;69.67
56894;BME280;43392;50.078;13.704;2022-08-19T07:23:42;96536.19;;;22.64;69.64
56894;BME280;43392;50.078;13.704;2022-08-19T07:26:14;96527.63;;;22.66;68.96
56894;BME280;43392;50.078;13.704;2022-08-19T07:28:42;96527.19;;;22.64;68.45
56894;BME280;43392;50.078;13.704;2022-08-19T07:31:10;96530.19;;;22.59;68.64
56894;BME280;43392;50.078;13.704;2022-08-19T07:33:38;96531.78;;;22.60;68.62
56894;BME280;43392;50.078;13.704;2022-08-19T07:36:08;96536.53;;;22.63;67.92
56894;BME280;43392;50.078;13.704;2022-08-19T07:38:37;96539.25;;;22.63;68.17
56894;BME280;43392;50.078;13.704;2022-08-19T07:41:05;96534.25;;;22.65;67.72
56894;BME280;43392;50.078;13.704;2022-08-19T07:43:32;96523.88;;;22.74;67.17
56894;BME280;43392;50.078;13.704;2022-08-19T07:45:59;96517.78;;;22.84;66.94
56894;BME280;43392;50.078;13.704;2022-08-19T07:48:27;96519.13;;;22.93;66.77
56894;BME280;43392;50.078;13.704;2022-08-19T07:50:54;96529.09;;;23.05;66.01
56894;BME280;43392;50.078;13.704;2022-08-19T07:53:24;96528.41;;;23.11;65.38
56894;BME280;43392;50.078;13.704;2022-08-19T07:55:51;96520.25;;;23.15;65.28
56894;BME280;43392;50.078;13.704;2022-08-19T07:58:20;96522.69;;;23.20;65.50
56894;BME280;43392;50.078;13.704;2022-08-19T08:00:49;96534.06;;;23.22;65.55
56894;BME280;43392;50.078;13.704;2022-08-19T08:03:19;96530.91;;;23.20;65.24
56894;BME280;43392;50.078;13.704;2022-08-19T08:05:46;96530.91;;;23.20;65.64
56894;BME280;43392;50.078;13.704;2022-08-19T08:08:31;96518.78;;;23.21;65.85
56894;BME280;43392;50.078;13.704;2022-08-19T08:11:18;96519.66;;;23.25;65.08
56894;BME280;43392;50.078;13.704;2022-08-19T08:13:45;96518.69;;;23.37;64.92
56894;BME280;43392;50.078;13.704;2022-08-19T08:16:13;96518.56;;;23.56;64.58
56894;BME280;43392;50.078;13.704;2022-08-19T08:18:40;96520.66;;;23.66;63.87
56894;BME280;43392;50.078;13.704;2022-08-19T08:21:08;96520.59;;;23.62;63.16
56894;BME280;43392;50.078;13.704;2022-08-19T08:23:36;96515.00;;;23.52;63.63
56894;BME280;43392;50.078;13.704;2022-08-19T08:26:03;96517.16;;;23.39;63.47
56894;BME280;43392;50.078;13.704;2022-08-19T08:28:30;96520.63;;;23.36;63.95
56894;BME280;43392;50.078;13.704;2022-08-19T08:30:57;96518.28;;;23.38;64.21
56894;BME280;43392;50.078;13.704;2022-08-19T08:33:26;96514.69;;;23.34;64.05
56894;BME280;43392;50.078;13.704;2022-08-19T08:35:53;96519.03;;;23.35;64.24
56894;BME280;43392;50.078;13.704;2022-08-19T08:38:20;96518.56;;;23.33;63.55
56894;BME280;43392;50.078;13.704;2022-08-19T08:40:52;96520.91;;;23.31;64.30
56894;BME280;43392;50.078;13.704;2022-08-19T08:43:27;96529.06;;;23.28;63.96
56894;BME280;43392;50.078;13.704;2022-08-19T08:46:09;96522.84;;;23.31;63.94
56894;BME280;43392;50.078;13.704;2022-08-19T08:48:42;96523.63;;;23.31;63.76
56894;BME280;43392;50.078;13.704;2022-08-19T08:51:15;96534.31;;;23.36;63.75
56894;BME280;43392;50.078;13.704;2022-08-19T08:53:45;96546.84;;;23.37;63.53
56894;BME280;43392;50.078;13.704;2022-08-19T08:56:15;96547.47;;;23.31;63.81
56894;BME280;43392;50.078;13.704;2022-08-19T08:58:51;96555.63;;;23.27;64.11
56894;BME280;43392;50.078;13.704;2022-08-19T09:01:20;96555.63;;;23.27;63.84
56894;BME280;43392;50.078;13.704;2022-08-19T09:03:47;96567.41;;;23.31;64.41
56894;BME280;43392;50.078;13.704;2022-08-19T09:06:20;96568.56;;;23.30;64.46
56894;BME280;43392;50.078;13.704;2022-08-19T09:08:58;96567.84;;;23.33;63.78
56894;BME280;43392;50.078;13.704;2022-08-19T09:11:41;96567.47;;;23.35;64.06
56894;BME280;43392;50.078;13.704;2022-08-19T09:14:21;96564.81;;;23.38;64.08
56894;BME280;43392;50.078;13.704;2022-08-19T09:16:49;96571.56;;;23.44;64.14
56894;BME280;43392;50.078;13.704;2022-08-19T09:19:17;96565.03;;;23.52;64.21
56894;BME280;43392;50.078;13.704;2022-08-19T09:21:44;96570.72;;;23.66;63.84
56894;BME280;43392;50.078;13.704;2022-08-19T09:24:10;96573.22;;;23.78;63.39
56894;BME280;43392;50.078;13.704;2022-08-19T09:26:38;96574.97;;;23.90;62.69
56894;BME280;43392;50.078;13.704;2022-08-19T09:29:05;96568.88;;;24.00;62.08
56894;BME280;43392;50.078;13.704;2022-08-19T09:31:32;96561.19;;;24.09;61.90
56894;BME280;43392;50.078;13.704;2022-08-19T09:33:59;96554.63;;;24.17;61.72
56894;BME280;43392;50.078;13.704;2022-08-19T09:36:30;96556.91;;;24.12;61.44
56894;BME280;43392;50.078;13.704;2022-08-19T09:38:59;96570.50;;;24.05;62.08
56894;BME280;43392;50.078;13.704;2022-08-19T09:41:26;96566.47;;;23.99;61.90
56894;BME280;43392;50.078;13.704;2022-08-19T09:43:56;96560.81;;;23.85;61.75
56894;BME280;43392;50.078;13.704;2022-08-19T09:46:24;96561.44;;;23.74;61.90
56894;BME280;43392;50.078;13.704;2022-08-19T09:48:52;96561.34;;;23.67;62.19
56894;BME280;43392;50.078;13.704;2022-08-19T09:51:21;96559.03;;;23.69;62.75
56894;BME280;43392;50.078;13.704;2022-08-19T09:53:49;96561.88;;;23.76;62.49
56894;BME280;43392;50.078;13.704;2022-08-19T09:56:18;96565.41;;;23.77;62.17
56894;BME280;43392;50.078;13.704;2022-08-19T09:58:45;96555.63;;;23.76;61.88
56894;BME280;43392;50.078;13.704;2022-08-19T10:01:17;96551.28;;;23.75;62.47
56894;BME280;43392;50.078;13.704;2022-08-19T10:03:47;96555.19;;;23.74;62.41
56894;BME280;43392;50.078;13.704;2022-08-19T10:06:15;96559.44;;;23.71;62.57
56894;BME280;43392;50.078;13.704;2022-08-19T10:08:41;96566.81;;;23.67;62.36
56894;BME280;43392;50.078;13.704;2022-08-19T10:11:08;96564.41;;;23.62;63.02
56894;BME280;43392;50.078;13.704;2022-08-19T10:13:35;96570.59;;;23.59;62.93
56894;BME280;43392;50.078;13.704;2022-08-19T10:16:05;96566.31;;;23.58;62.72
56894;BME280;43392;50.078;13.704;2022-08-19T10:18:35;96572.50;;;23.55;62.75
56894;BME280;43392;50.078;13.704;2022-08-19T10:21:05;96570.91;;;23.54;62.65
56894;BME280;43392;50.078;13.704;2022-08-19T10:23:34;96575.66;;;23.57;62.58
56894;BME280;43392;50.078;13.704;2022-08-19T10:26:02;96587.47;;;23.61;62.97
56894;BME280;43392;50.078;13.704;2022-08-19T10:28:30;96579.69;;;23.63;63.16
56894;BME280;43392;50.078;13.704;2022-08-19T10:30:57;96581.25;;;23.64;62.80
56894;BME280;43392;50.078;13.704;2022-08-19T10:33:24;96580.91;;;23.66;62.24
56894;BME280;43392;50.078;13.704;2022-08-19T10:35:59;96584.88;;;23.72;61.88
56894;BME280;43392;50.078;13.704;2022-08-19T10:38:26;96571.28;;;23.79;62.46
56894;BME280;43392;50.078;13.704;2022-08-19T10:40:53;96564.75;;;23.87;62.25
56894;BME280;43392;50.078;13.704;2022-08-19T10:43:20;96575.88;;;23.98;61.89
56894;BME280;43392;50.078;13.704;2022-08-19T10:45:51;96576.41;;;24.07;60.83
56894;BME280;43392;50.078;13.704;2022-08-19T10:48:18;96565.94;;;24.12;60.59
56894;BME280;43392;50.078;13.704;2022-08-19T10:50:44;96568.38;;;24.21;60.53
56894;BME280;43392;50.078;13.704;2022-08-19T10:53:29;96570.78;;;24.26;60.61
56894;BME280;43392;50.078;13.704;2022-08-19T10:55:56;96576.25;;;24.26;60.87
56894;BME280;43392;50.078;13.704;2022-08-19T10:58:40;96566.88;;;24.27;60.74
56894;BME280;43392;50.078;13.704;2022-08-19T11:01:07;96562.97;;;24.28;60.49
56894;BME280;43392;50.078;13.704;2022-08-19T11:03:33;96567.31;;;24.29;59.91
56894;BME280;43392;50.078;13.704;2022-08-19T11:06:01;96566.09;;;24.26;60.64
56894;BME280;43392;50.078;13.704;2022-08-19T11:08:28;96572.25;;;24.20;60.94
56894;BME280;43392;50.078;13.704;2022-08-19T11:10:59;96582.41;;;24.16;60.31
56894;BME280;43392;50.078;13.704;2022-08-19T11:13:27;96586.63;;;24.10;61.01
56894;BME280;43392;50.078;13.704;2022-08-19T11:15:58;96584.19;;;24.05;60.67
56894;BME280;43392;50.078;13.704;2022-08-19T11:18:25;96579.03;;;24.00;60.70
56894;BME280;43392;50.078;13.704;2022-08-19T11:20:52;96587.56;;;23.95;60.85
56894;BME280;43392;50.078;13.704;2022-08-19T11:23:19;96581.28;;;23.94;61.31
56894;BME280;43392;50.078;13.704;2022-08-19T11:25:45;96584.44;;;23.96;61.28
56894;BME280;43392;50.078;13.704;2022-08-19T11:28:13;96588.47;;;24.06;62.13
56894;BME280;43392;50.078;13.704;2022-08-19T11:30:40;96593.31;;;24.12;61.33
56894;BME280;43392;50.078;13.704;2022-08-19T11:33:07;96583.56;;;24.15;61.28
56894;BME280;43392;50.078;13.704;2022-08-19T11:35:39;96579.03;;;24.29;62.30
56894;BME280;43392;50.078;13.704;2022-08-19T11:38:05;96579.22;;;24.44;61.39
56894;BME280;43392;50.078;13.704;2022-08-19T11:40:32;96578.50;;;24.50;60.57
56894;BME280;43392;50.078;13.704;2022-08-19T11:42:59;96582.06;;;24.54;60.63
56894;BME280;43392;50.078;13.704;2022-08-19T11:45:28;96578.19;;;24.55;60.04
56894;BME280;43392;50.078;13.704;2022-08-19T11:47:55;96581.25;;;24.50;61.09
56894;BME280;43392;50.078;13.704;2022-08-19T11:50:22;96576.91;;;24.49;61.24
56894;BME280;43392;50.078;13.704;2022-08-19T11:52:49;96585.13;;;24.46;60.97
56894;BME280;43392;50.078;13.704;2022-08-19T11:55:16;96582.38;;;24.46;60.85
56894;BME280;43392;50.078;13.704;2022-08-19T11:57:44;96587.06;;;24.45;61.30
56894;BME280;43392;50.078;13.704;2022-08-19T12:00:13;96588.97;;;24.41;60.98
56894;BME280;43392;50.078;13.704;2022-08-19T12:02:41;96577.25;;;24.44;61.03
56894;BME280;43392;50.078;13.704;2022-08-19T12:05:08;96581.63;;;24.49;61.44
56894;BME280;43392;50.078;13.704;2022-08-19T12:07:35;96583.16;;;24.46;61.16
56894;BME280;43392;50.078;13.704;2022-08-19T12:10:03;96570.16;;;24.39;60.71
56894;BME280;43392;50.078;13.704;2022-08-19T12:12:29;96562.31;;;24.38;60.48
56894;BME280;43392;50.078;13.704;2022-08-19T12:14:56;96568.63;;;24.42;60.86
56894;BME280;43392;50.078;13.704;2022-08-19T12:17:24;96560.81;;;24.44;60.82
56894;BME280;43392;50.078;13.704;2022-08-19T12:19:52;96567.88;;;24.45;60.52
56894;BME280;43392;50.078;13.704;2022-08-19T12:22:18;96564.41;;;24.48;60.55
56894;BME280;43392;50.078;13.704;2022-08-19T12:24:45;96560.13;;;24.54;60.52
56894;BME280;43392;50.078;13.704;2022-08-19T12:27:13;96565.28;;;24.59;59.59
56894;BME280;43392;50.078;13.704;2022-08-19T12:29:39;96566.13;;;24.63;60.25
56894;BME280;43392;50.078;13.704;2022-08-19T12:32:06;96552.50;;;24.70;60.13
56894;BME280;43392;50.078;13.704;2022-08-19T12:34:33;96552.16;;;24.75;59.51
56894;BME280;43392;50.078;13.704;2022-08-19T12:37:05;96544.38;;;24.77;59.74
56894;BME280;43392;50.078;13.704;2022-08-19T12:39:35;96548.38;;;24.87;59.33
56894;BME280;43392;50.078;13.704;2022-08-19T12:42:02;96550.78;;;24.92;59.03
56894;BME280;43392;50.078;13.704;2022-08-19T12:44:29;96550.06;;;24.98;59.25
56894;BME280;43392;50.078;13.704;2022-08-19T12:46:56;96547.47;;;25.16;58.50
56894;BME280;43392;50.078;13.704;2022-08-19T12:49:22;96549.53;;;25.30;58.31
56894;BME280;43392;50.078;13.704;2022-08-19T12:51:50;96556.13;;;25.22;58.74
56894;BME280;43392;50.078;13.704;2022-08-19T12:54:18;96545.59;;;25.24;59.09
56894;BME280;43392;50.078;13.704;2022-08-19T12:56:45;96545.97;;;25.26;58.87